sensor_id;sensor_type;location;lat;lon;timestamp;P1;durP1;ratioP1;P2;durP2;ratioP2
82255;SDS011;71857;34.434;-117.370;2023-07-29T00:00:08;4.10;;;2.92;;
82255;SDS011;71857;34.434;-117.370;2023-07-29T00:00:39;3.95;;;3.42;;
82255;SDS011;71857;34.434;-117.370;2023-07-29T00:01:10;4.90;;;4.18;;
82255;SDS011;71857;34.434;-117.370;2023-07-29T00:01:41;5.25;;;3.78;;
82255;SDS011;71857;34.434;-117.370;2023-07-29T00:02:11;4.63;;;4.13;;
82255;SDS011;71857;34.434;-117.370;2023-07-29T00:02:42;5.68;;;4.82;;
82255;SDS011;71857;34.434;-117.370;2023-07-29T00:03:13;4.65;;;3.92;;
82255;SDS011;71857;34.434;-117.370;2023-07-29T00:03:44;4.95;;;3.17;;
82255;SDS011;71857;34.434;-117.370;2023-07-29T00:04:16;5.20;;;4.22;;
82255;SDS011;71857;34.434;-117.370;2023-07-29T00:04:47;4.38;;;3.95;;
82255;SDS011;71857;34.434;-117.370;2023-07-29T00:05:20;4.60;;;4.20;;
82255;SDS011;71857;34.434;-117.370;2023-07-29T00:05:51;4.53;;;3.42;;
82255;SDS011;71857;34.434;-117.370;2023-07-29T00:06:23;5.32;;;3.55;;
82255;SDS011;71857;34.434;-117.370;2023-07-29T00:06:54;4.97;;;3.55;;
82255;SDS011;71857;34.434;-117.370;2023-07-29T00:07:25;5.25;;;3.70;;
82255;SDS011;71857;34.434;-117.370;2023-07-29T00:07:55;4.88;;;3.25;;
82255;SDS011;71857;34.434;-117.370;2023-07-29T00:08:26;4.72;;;4.07;;
82255;SDS011;71857;34.434;-117.370;2023-07-29T00:08:57;6.57;;;4.63;;
82255;SDS011;71857;34.434;-117.370;2023-07-29T00:09:27;5.03;;;3.90;;
82255;SDS011;71857;34.434;-117.370;2023-07-29T00:09:58;5.03;;;3.85;;
82255;SDS011;71857;34.434;-117.370;2023-07-29T00:10:31;4.18;;;3.45;;
82255;SDS011;71857;34.434;-117.370;2023-07-29T00:11:02;5.38;;;3.67;;
82255;SDS011;71857;34.434;-117.370;2023-07-29T00:11:32;5.57;;;3.80;;
82255;SDS011;71857;34.434;-117.370;2023-07-29T00:12:06;5.93;;;4.43;;
82255;SDS011;71857;34.434;-117.370;2023-07-29T00:12:37;5.13;;;4.50;;
82255;SDS011;71857;34.434;-117.370;2023-07-29T00:13:08;4.45;;;3.03;;
82255;SDS011;71857;34.434;-117.370;2023-07-29T00:13:38;4.63;;;3.33;;
82255;SDS011;71857;34.434;-117.370;2023-07-29T00:14:09;5.18;;;3.42;;
82255;SDS011;71857;34.434;-117.370;2023-07-29T00:14:43;5.88;;;3.60;;
82255;SDS011;71857;34.434;-117.370;2023-07-29T00:15:14;9.00;;;3.50;;
82255;SDS011;71857;34.434;-117.370;2023-07-29T00:15:44;4.47;;;1.67;;
82255;SDS011;71857;34.434;-117.370;2023-07-29T00:16:18;3.85;;;2.25;;
82255;SDS011;71857;34.434;-117.370;2023-07-29T00:16:52;5.20;;;2.75;;
82255;SDS011;71857;34.434;-117.370;2023-07-29T00:17:22;4.70;;;3.33;;
82255;SDS011;71857;34.434;-117.370;2023-07-29T00:17:53;4.35;;;2.75;;
82255;SDS011;71857;34.434;-117.370;2023-07-29T00:18:24;6.03;;;3.45;;
82255;SDS011;71857;34.434;-117.370;2023-07-29T00:18:55;4.32;;;3.15;;
82255;SDS011;71857;34.434;-117.370;2023-07-29T00:19:26;5.40;;;3.25;;
82255;SDS011;71857;34.434;-117.370;2023-07-29T00:20:29;5.00;;;2.65;;
82255;SDS011;71857;34.434;-117.370;2023-07-29T00:20:59;5.32;;;3.13;;
82255;SDS011;71857;34.434;-117.370;2023-07-29T00:21:30;7.28;;;3.35;;
82255;SDS011;71857;34.434;-117.370;2023-07-29T00:22:01;5.70;;;3.20;;
82255;SDS011;71857;34.434;-117.370;2023-07-29T00:22:32;7.95;;;2.75;;
82255;SDS011;71857;34.434;-117.370;2023-07-29T00:23:03;6.00;;;3.53;;
82255;SDS011;71857;34.434;-117.370;2023-07-29T00:23:33;7.15;;;3.13;;
82255;SDS011;71857;34.434;-117.370;2023-07-29T00:24:04;4.07;;;2.53;;
82255;SDS011;71857;34.434;-117.370;2023-07-29T00:24:35;4.22;;;1.52;;
82255;SDS011;71857;34.434;-117.370;2023-07-29T00:25:06;4.93;;;3.20;;
82255;SDS011;71857;34.434;-117.370;2023-07-29T00:25:37;5.32;;;2.88;;
82255;SDS011;71857;34.434;-117.370;2023-07-29T00:26:07;6.15;;;3.53;;
82255;SDS011;71857;34.434;-117.370;2023-07-29T00:26:38;4.82;;;3.03;;
82255;SDS011;71857;34.434;-117.370;2023-07-29T00:27:09;4.88;;;2.90;;
82255;SDS011;71857;34.434;-117.370;2023-07-29T00:27:40;4.47;;;2.58;;
82255;SDS011;71857;34.434;-117.370;2023-07-29T00:28:11;5.55;;;2.65;;
82255;SDS011;71857;34.434;-117.370;2023-07-29T00:28:42;5.10;;;3.53;;
82255;SDS011;71857;34.434;-117.370;2023-07-29T00:29:13;5.85;;;2.40;;
82255;SDS011;71857;34.434;-117.370;2023-07-29T00:29:43;4.65;;;3.40;;
82255;SDS011;71857;34.434;-117.370;2023-07-29T00:30:14;5.70;;;3.15;;
82255;SDS011;71857;34.434;-117.370;2023-07-29T00:30:45;6.40;;;2.95;;
82255;SDS011;71857;34.434;-117.370;2023-07-29T00:31:15;4.28;;;2.90;;
82255;SDS011;71857;34.434;-117.370;2023-07-29T00:31:46;6.93;;;2.58;;
82255;SDS011;71857;34.434;-117.370;2023-07-29T00:32:17;5.22;;;2.88;;
82255;SDS011;71857;34.434;-117.370;2023-07-29T00:32:48;5.47;;;3.70;;
82255;SDS011;71857;34.434;-117.370;2023-07-29T00:33:19;5.05;;;2.88;;
82255;SDS011;71857;34.434;-117.370;2023-07-29T00:33:51;4.93;;;3.03;;
82255;SDS011;71857;34.434;-117.370;2023-07-29T00:34:23;5.07;;;3.55;;
82255;SDS011;71857;34.434;-117.370;2023-07-29T00:34:53;3.15;;;1.70;;
82255;SDS011;71857;34.434;-117.370;2023-07-29T00:35:24;4.18;;;2.63;;
82255;SDS011;71857;34.434;-117.370;2023-07-29T00:35:55;5.20;;;2.85;;
82255;SDS011;71857;34.434;-117.370;2023-07-29T00:36:26;4.55;;;2.95;;
82255;SDS011;71857;34.434;-117.370;2023-07-29T00:36:58;4.72;;;3.08;;
82255;SDS011;71857;34.434;-117.370;2023-07-29T00:37:29;5.93;;;1.85;;
82255;SDS011;71857;34.434;-117.370;2023-07-29T00:38:00;4.38;;;1.90;;
82255;SDS011;71857;34.434;-117.370;2023-07-29T00:38:31;4.90;;;2.45;;
82255;SDS011;71857;34.434;-117.370;2023-07-29T00:39:02;6.47;;;2.50;;
82255;SDS011;71857;34.434;-117.370;2023-07-29T00:39:33;5.30;;;2.30;;
82255;SDS011;71857;34.434;-117.370;2023-07-29T00:40:06;6.28;;;2.38;;
82255;SDS011;71857;34.434;-117.370;2023-07-29T00:40:39;5.40;;;2.33;;
82255;SDS011;71857;34.434;-117.370;2023-07-29T00:41:09;4.55;;;2.35;;
82255;SDS011;71857;34.434;-117.370;2023-07-29T00:41:43;4.70;;;2.42;;
82255;SDS011;71857;34.434;-117.370;2023-07-29T00:42:14;3.97;;;2.53;;
82255;SDS011;71857;34.434;-117.370;2023-07-29T00:42:45;5.05;;;2.50;;
82255;SDS011;71857;34.434;-117.370;2023-07-29T00:43:16;4.85;;;2.38;;
82255;SDS011;71857;34.434;-117.370;2023-07-29T00:43:47;5.25;;;2.20;;
82255;SDS011;71857;34.434;-117.370;2023-07-29T00:44:17;4.40;;;2.40;;
82255;SDS011;71857;34.434;-117.370;2023-07-29T00:44:48;3.78;;;2.55;;
82255;SDS011;71857;34.434;-117.370;2023-07-29T00:45:19;6.03;;;2.83;;
82255;SDS011;71857;34.434;-117.370;2023-07-29T00:45:50;4.88;;;2.17;;
82255;SDS011;71857;34.434;-117.370;2023-07-29T00:46:20;4.97;;;2.42;;
82255;SDS011;71857;34.434;-117.370;2023-07-29T00:46:52;4.35;;;2.28;;
82255;SDS011;71857;34.434;-117.370;2023-07-29T00:47:24;4.82;;;2.55;;
82255;SDS011;71857;34.434;-117.370;2023-07-29T00:47:55;5.38;;;2.50;;
82255;SDS011;71857;34.434;-117.370;2023-07-29T00:48:26;4.85;;;2.10;;
82255;SDS011;71857;34.434;-117.370;2023-07-29T00:48:57;4.63;;;2.15;;
82255;SDS011;71857;34.434;-117.370;2023-07-29T00:49:28;4.03;;;2.28;;
82255;SDS011;71857;34.434;-117.370;2023-07-29T00:49:59;4.60;;;2.63;;
82255;SDS011;71857;34.434;-117.370;2023-07-29T00:50:30;3.42;;;2.33;;
82255;SDS011;71857;34.434;-117.370;2023-07-29T00:51:01;5.63;;;2.58;;
82255;SDS011;71857;34.434;-117.370;2023-07-29T00:51:32;4.22;;;2.03;;
82255;SDS011;71857;34.434;-117.370;2023-07-29T00:52:03;4.32;;;2.70;;
82255;SDS011;71857;34.434;-117.370;2023-07-29T00:52:42;4.30;;;2.55;;
82255;SDS011;71857;34.434;-117.370;2023-07-29T00:53:13;4.57;;;2.55;;
82255;SDS011;71857;34.434;-117.370;2023-07-29T00:53:44;4.07;;;2.70;;
82255;SDS011;71857;34.434;-117.370;2023-07-29T00:54:14;4.25;;;2.33;;
82255;SDS011;71857;34.434;-117.370;2023-07-29T00:54:45;5.32;;;2.40;;
82255;SDS011;71857;34.434;-117.370;2023-07-29T00:55:16;4.53;;;2.70;;
82255;SDS011;71857;34.434;-117.370;2023-07-29T00:55:47;4.05;;;2.30;;
82255;SDS011;71857;34.434;-117.370;2023-07-29T00:56:18;5.93;;;2.83;;
82255;SDS011;71857;34.434;-117.370;2023-07-29T00:56:48;3.35;;;1.63;;
82255;SDS011;71857;34.434;-117.370;2023-07-29T00:57:19;5.32;;;3.17;;
82255;SDS011;71857;34.434;-117.370;2023-07-29T00:57:51;5.00;;;2.60;;
82255;SDS011;71857;34.434;-117.370;2023-07-29T00:58:24;3.75;;;2.65;;
82255;SDS011;71857;34.434;-117.370;2023-07-29T00:58:55;5.20;;;2.42;;
82255;SDS011;71857;34.434;-117.370;2023-07-29T00:59:29;5.57;;;2.65;;
82255;SDS011;71857;34.434;-117.370;2023-07-29T01:00:02;9.65;;;3.30;;
82255;SDS011;71857;34.434;-117.370;2023-07-29T01:00:34;5.95;;;3.83;;
82255;SDS011;71857;34.434;-117.370;2023-07-29T01:01:05;4.95;;;3.22;;
82255;SDS011;71857;34.434;-117.370;2023-07-29T01:01:35;3.75;;;2.53;;
82255;SDS011;71857;34.434;-117.370;2023-07-29T01:02:06;4.03;;;2.33;;
82255;SDS011;71857;34.434;-117.370;2023-07-29T01:02:38;6.03;;;2.38;;
82255;SDS011;71857;34.434;-117.370;2023-07-29T01:03:09;4.38;;;2.75;;
82255;SDS011;71857;34.434;-117.370;2023-07-29T01:03:40;6.20;;;2.75;;
82255;SDS011;71857;34.434;-117.370;2023-07-29T01:04:11;3.97;;;2.50;;
82255;SDS011;71857;34.434;-117.370;2023-07-29T01:04:42;3.67;;;2.70;;
82255;SDS011;71857;34.434;-117.370;2023-07-29T01:05:13;4.70;;;2.75;;
82255;SDS011;71857;34.434;-117.370;2023-07-29T01:07:23;7.68;;;3.20;;
82255;SDS011;71857;34.434;-117.370;2023-07-29T01:07:59;4.45;;;3.13;;
82255;SDS011;71857;34.434;-117.370;2023-07-29T01:08:38;5.75;;;2.40;;
82255;SDS011;71857;34.434;-117.370;2023-07-29T01:09:15;4.28;;;2.78;;
82255;SDS011;71857;34.434;-117.370;2023-07-29T01:11:19;6.50;;;3.25;;
82255;SDS011;71857;34.434;-117.370;2023-07-29T01:13:06;6.50;;;2.92;;
82255;SDS011;71857;34.434;-117.370;2023-07-29T01:13:44;5.32;;;2.75;;
82255;SDS011;71857;34.434;-117.370;2023-07-29T01:14:59;4.00;;;2.80;;
82255;SDS011;71857;34.434;-117.370;2023-07-29T01:16:14;5.28;;;2.85;;
82255;SDS011;71857;34.434;-117.370;2023-07-29T01:16:52;3.90;;;2.30;;
82255;SDS011;71857;34.434;-117.370;2023-07-29T01:17:25;4.20;;;2.47;;
82255;SDS011;71857;34.434;-117.370;2023-07-29T01:18:05;4.72;;;2.83;;
82255;SDS011;71857;34.434;-117.370;2023-07-29T01:18:36;5.55;;;2.92;;
82255;SDS011;71857;34.434;-117.370;2023-07-29T01:19:08;4.85;;;2.55;;
82255;SDS011;71857;34.434;-117.370;2023-07-29T01:20:23;3.88;;;2.45;;
82255;SDS011;71857;34.434;-117.370;2023-07-29T01:20:58;3.90;;;2.30;;
82255;SDS011;71857;34.434;-117.370;2023-07-29T01:21:29;6.20;;;2.65;;
82255;SDS011;71857;34.434;-117.370;2023-07-29T01:22:00;5.43;;;2.35;;
82255;SDS011;71857;34.434;-117.370;2023-07-29T01:22:35;4.97;;;2.42;;
82255;SDS011;71857;34.434;-117.370;2023-07-29T01:23:06;3.65;;;1.48;;
82255;SDS011;71857;34.434;-117.370;2023-07-29T01:23:37;4.50;;;2.55;;
82255;SDS011;71857;34.434;-117.370;2023-07-29T01:24:11;4.13;;;2.45;;
82255;SDS011;71857;34.434;-117.370;2023-07-29T01:24:42;6.70;;;2.05;;
82255;SDS011;71857;34.434;-117.370;2023-07-29T01:25:13;4.35;;;2.25;;
82255;SDS011;71857;34.434;-117.370;2023-07-29T01:25:44;6.32;;;2.58;;
82255;SDS011;71857;34.434;-117.370;2023-07-29T01:26:14;3.50;;;2.03;;
82255;SDS011;71857;34.434;-117.370;2023-07-29T01:26:45;4.90;;;2.28;;
82255;SDS011;71857;34.434;-117.370;2023-07-29T01:27:16;4.95;;;2.38;;
82255;SDS011;71857;34.434;-117.370;2023-07-29T01:27:48;4.60;;;2.42;;
82255;SDS011;71857;34.434;-117.370;2023-07-29T01:28:18;6.32;;;2.20;;
82255;SDS011;71857;34.434;-117.370;2023-07-29T01:28:49;5.88;;;2.65;;
82255;SDS011;71857;34.434;-117.370;2023-07-29T01:29:20;6.22;;;2.55;;
82255;SDS011;71857;34.434;-117.370;2023-07-29T01:29:51;4.60;;;2.65;;
82255;SDS011;71857;34.434;-117.370;2023-07-29T01:30:22;5.05;;;2.20;;
82255;SDS011;71857;34.434;-117.370;2023-07-29T01:31:07;4.20;;;2.20;;
82255;SDS011;71857;34.434;-117.370;2023-07-29T01:31:42;4.65;;;2.03;;
82255;SDS011;71857;34.434;-117.370;2023-07-29T01:32:22;4.72;;;2.58;;
82255;SDS011;71857;34.434;-117.370;2023-07-29T01:33:07;4.05;;;2.55;;
82255;SDS011;71857;34.434;-117.370;2023-07-29T01:33:42;4.18;;;2.20;;
82255;SDS011;71857;34.434;-117.370;2023-07-29T01:34:23;5.85;;;2.63;;
82255;SDS011;71857;34.434;-117.370;2023-07-29T01:35:41;5.68;;;2.40;;
82255;SDS011;71857;34.434;-117.370;2023-07-29T01:35:48;5.03;;;2.55;;
82255;SDS011;71857;34.434;-117.370;2023-07-29T01:36:21;5.43;;;2.92;;
82255;SDS011;71857;34.434;-117.370;2023-07-29T01:36:53;6.70;;;2.83;;
82255;SDS011;71857;34.434;-117.370;2023-07-29T01:37:26;4.78;;;2.58;;
82255;SDS011;71857;34.434;-117.370;2023-07-29T01:38:13;4.70;;;2.22;;
82255;SDS011;71857;34.434;-117.370;2023-07-29T01:38:45;5.10;;;2.55;;
82255;SDS011;71857;34.434;-117.370;2023-07-29T01:39:17;5.05;;;2.78;;
82255;SDS011;71857;34.434;-117.370;2023-07-29T01:40:22;5.00;;;2.28;;
82255;SDS011;71857;34.434;-117.370;2023-07-29T01:40:54;4.45;;;2.13;;
82255;SDS011;71857;34.434;-117.370;2023-07-29T01:41:25;3.78;;;2.05;;
82255;SDS011;71857;34.434;-117.370;2023-07-29T01:41:55;5.47;;;2.30;;
82255;SDS011;71857;34.434;-117.370;2023-07-29T01:42:26;4.93;;;2.60;;
82255;SDS011;71857;34.434;-117.370;2023-07-29T01:42:57;7.68;;;2.53;;
82255;SDS011;71857;34.434;-117.370;2023-07-29T01:43:28;4.25;;;2.55;;
82255;SDS011;71857;34.434;-117.370;2023-07-29T01:43:59;5.57;;;2.67;;
82255;SDS011;71857;34.434;-117.370;2023-07-29T01:44:30;5.60;;;2.55;;
82255;SDS011;71857;34.434;-117.370;2023-07-29T01:45:01;4.57;;;2.42;;
82255;SDS011;71857;34.434;-117.370;2023-07-29T01:45:38;5.60;;;2.53;;
82255;SDS011;71857;34.434;-117.370;2023-07-29T01:46:10;4.18;;;2.70;;
82255;SDS011;71857;34.434;-117.370;2023-07-29T01:46:43;4.07;;;2.05;;
82255;SDS011;71857;34.434;-117.370;2023-07-29T01:47:14;4.10;;;2.40;;
82255;SDS011;71857;34.434;-117.370;2023-07-29T01:47:45;5.32;;;2.15;;
82255;SDS011;71857;34.434;-117.370;2023-07-29T01:48:16;3.92;;;2.40;;
82255;SDS011;71857;34.434;-117.370;2023-07-29T01:48:47;5.65;;;2.47;;
82255;SDS011;71857;34.434;-117.370;2023-07-29T01:49:18;5.13;;;2.58;;
82255;SDS011;71857;34.434;-117.370;2023-07-29T01:49:49;5.13;;;2.67;;
82255;SDS011;71857;34.434;-117.370;2023-07-29T01:50:20;7.10;;;2.53;;
82255;SDS011;71857;34.434;-117.370;2023-07-29T01:50:50;6.68;;;2.58;;
82255;SDS011;71857;34.434;-117.370;2023-07-29T01:51:24;4.57;;;2.45;;
82255;SDS011;71857;34.434;-117.370;2023-07-29T01:51:55;6.15;;;2.42;;
82255;SDS011;71857;34.434;-117.370;2023-07-29T01:52:26;6.03;;;2.78;;
82255;SDS011;71857;34.434;-117.370;2023-07-29T01:52:57;6.45;;;2.35;;
82255;SDS011;71857;34.434;-117.370;2023-07-29T01:53:27;7.03;;;2.92;;
82255;SDS011;71857;34.434;-117.370;2023-07-29T01:53:58;4.88;;;2.50;;
82255;SDS011;71857;34.434;-117.370;2023-07-29T01:54:30;5.05;;;2.53;;
82255;SDS011;71857;34.434;-117.370;2023-07-29T01:55:00;5.65;;;2.13;;
82255;SDS011;71857;34.434;-117.370;2023-07-29T01:55:34;6.72;;;2.67;;
82255;SDS011;71857;34.434;-117.370;2023-07-29T01:56:04;5.40;;;2.88;;
82255;SDS011;71857;34.434;-117.370;2023-07-29T01:56:35;6.70;;;3.05;;
82255;SDS011;71857;34.434;-117.370;2023-07-29T01:57:07;5.38;;;2.33;;
82255;SDS011;71857;34.434;-117.370;2023-07-29T01:57:38;4.40;;;2.20;;
82255;SDS011;71857;34.434;-117.370;2023-07-29T01:58:09;5.60;;;2.72;;
82255;SDS011;71857;34.434;-117.370;2023-07-29T01:58:39;6.93;;;2.50;;
82255;SDS011;71857;34.434;-117.370;2023-07-29T01:59:10;5.75;;;2.58;;
82255;SDS011;71857;34.434;-117.370;2023-07-29T01:59:46;6.45;;;3.13;;
82255;SDS011;71857;34.434;-117.370;2023-07-29T02:00:17;3.83;;;2.53;;
82255;SDS011;71857;34.434;-117.370;2023-07-29T02:00:48;6.00;;;2.45;;
82255;SDS011;71857;34.434;-117.370;2023-07-29T02:01:19;8.25;;;3.38;;
82255;SDS011;71857;34.434;-117.370;2023-07-29T02:01:50;6.57;;;2.47;;
82255;SDS011;71857;34.434;-117.370;2023-07-29T02:02:21;4.40;;;2.45;;
82255;SDS011;71857;34.434;-117.370;2023-07-29T02:02:51;5.75;;;2.90;;
82255;SDS011;71857;34.434;-117.370;2023-07-29T02:03:22;5.40;;;2.72;;
82255;SDS011;71857;34.434;-117.370;2023-07-29T02:03:53;5.03;;;2.22;;
82255;SDS011;71857;34.434;-117.370;2023-07-29T02:04:25;6.45;;;2.15;;
82255;SDS011;71857;34.434;-117.370;2023-07-29T02:04:56;7.60;;;2.17;;
82255;SDS011;71857;34.434;-117.370;2023-07-29T02:05:27;4.40;;;2.15;;
82255;SDS011;71857;34.434;-117.370;2023-07-29T02:05:58;4.70;;;2.47;;
82255;SDS011;71857;34.434;-117.370;2023-07-29T02:06:28;6.60;;;2.33;;
82255;SDS011;71857;34.434;-117.370;2023-07-29T02:06:59;6.93;;;2.78;;
82255;SDS011;71857;34.434;-117.370;2023-07-29T02:07:30;6.65;;;2.47;;
82255;SDS011;71857;34.434;-117.370;2023-07-29T02:08:01;6.07;;;2.85;;
82255;SDS011;71857;34.434;-117.370;2023-07-29T02:08:32;7.10;;;3.13;;
82255;SDS011;71857;34.434;-117.370;2023-07-29T02:09:03;7.75;;;3.67;;
82255;SDS011;71857;34.434;-117.370;2023-07-29T02:09:34;6.03;;;2.92;;
82255;SDS011;71857;34.434;-117.370;2023-07-29T02:10:05;5.72;;;3.00;;
82255;SDS011;71857;34.434;-117.370;2023-07-29T02:10:36;7.90;;;3.03;;
82255;SDS011;71857;34.434;-117.370;2023-07-29T02:11:07;7.20;;;3.55;;
82255;SDS011;71857;34.434;-117.370;2023-07-29T02:11:38;9.52;;;3.25;;
82255;SDS011;71857;34.434;-117.370;2023-07-29T02:12:09;8.13;;;3.78;;
82255;SDS011;71857;34.434;-117.370;2023-07-29T02:12:40;7.65;;;3.65;;
82255;SDS011;71857;34.434;-117.370;2023-07-29T02:13:11;14.73;;;3.30;;
82255;SDS011;71857;34.434;-117.370;2023-07-29T02:13:42;8.82;;;3.65;;
82255;SDS011;71857;34.434;-117.370;2023-07-29T02:14:14;9.40;;;3.47;;
82255;SDS011;71857;34.434;-117.370;2023-07-29T02:14:44;9.10;;;3.67;;
82255;SDS011;71857;34.434;-117.370;2023-07-29T02:15:15;7.30;;;3.63;;
82255;SDS011;71857;34.434;-117.370;2023-07-29T02:15:46;9.45;;;4.13;;
82255;SDS011;71857;34.434;-117.370;2023-07-29T02:16:16;8.13;;;3.55;;
82255;SDS011;71857;34.434;-117.370;2023-07-29T02:16:48;9.45;;;3.67;;
82255;SDS011;71857;34.434;-117.370;2023-07-29T02:17:19;8.40;;;4.35;;
82255;SDS011;71857;34.434;-117.370;2023-07-29T02:17:51;7.63;;;4.40;;
82255;SDS011;71857;34.434;-117.370;2023-07-29T02:18:22;9.95;;;4.22;;
82255;SDS011;71857;34.434;-117.370;2023-07-29T02:18:53;6.45;;;3.75;;
82255;SDS011;71857;34.434;-117.370;2023-07-29T02:19:23;10.02;;;4.70;;
82255;SDS011;71857;34.434;-117.370;2023-07-29T02:19:54;8.50;;;4.50;;
82255;SDS011;71857;34.434;-117.370;2023-07-29T02:20:27;7.35;;;3.80;;
82255;SDS011;71857;34.434;-117.370;2023-07-29T02:20:58;7.32;;;4.75;;
82255;SDS011;71857;34.434;-117.370;2023-07-29T02:21:29;9.30;;;4.00;;
82255;SDS011;71857;34.434;-117.370;2023-07-29T02:22:00;6.25;;;4.07;;
82255;SDS011;71857;34.434;-117.370;2023-07-29T02:22:30;9.70;;;3.92;;
82255;SDS011;71857;34.434;-117.370;2023-07-29T02:23:01;6.38;;;2.85;;
82255;SDS011;71857;34.434;-117.370;2023-07-29T02:23:32;6.93;;;3.45;;
82255;SDS011;71857;34.434;-117.370;2023-07-29T02:24:03;7.22;;;3.63;;
82255;SDS011;71857;34.434;-117.370;2023-07-29T02:24:34;5.70;;;3.28;;
82255;SDS011;71857;34.434;-117.370;2023-07-29T02:25:05;6.05;;;3.40;;
82255;SDS011;71857;34.434;-117.370;2023-07-29T02:25:36;6.60;;;3.08;;
82255;SDS011;71857;34.434;-117.370;2023-07-29T02:26:07;6.07;;;3.45;;
82255;SDS011;71857;34.434;-117.370;2023-07-29T02:26:37;8.52;;;3.20;;
82255;SDS011;71857;34.434;-117.370;2023-07-29T02:27:08;6.28;;;2.60;;
82255;SDS011;71857;34.434;-117.370;2023-07-29T02:27:39;8.13;;;3.55;;
82255;SDS011;71857;34.434;-117.370;2023-07-29T02:28:10;6.18;;;3.65;;
82255;SDS011;71857;34.434;-117.370;2023-07-29T02:28:40;6.47;;;3.58;;
82255;SDS011;71857;34.434;-117.370;2023-07-29T02:29:11;7.82;;;4.00;;
82255;SDS011;71857;34.434;-117.370;2023-07-29T02:29:42;6.63;;;3.30;;
82255;SDS011;71857;34.434;-117.370;2023-07-29T02:30:13;6.20;;;3.78;;
82255;SDS011;71857;34.434;-117.370;2023-07-29T02:30:43;7.63;;;4.35;;
82255;SDS011;71857;34.434;-117.370;2023-07-29T02:31:21;7.40;;;3.47;;
82255;SDS011;71857;34.434;-117.370;2023-07-29T02:31:52;7.95;;;3.55;;
82255;SDS011;71857;34.434;-117.370;2023-07-29T02:32:23;6.35;;;3.80;;
82255;SDS011;71857;34.434;-117.370;2023-07-29T02:32:54;6.43;;;3.65;;
82255;SDS011;71857;34.434;-117.370;2023-07-29T02:33:25;6.60;;;3.50;;
82255;SDS011;71857;34.434;-117.370;2023-07-29T02:33:56;7.60;;;3.95;;
82255;SDS011;71857;34.434;-117.370;2023-07-29T02:34:26;6.47;;;2.80;;
82255;SDS011;71857;34.434;-117.370;2023-07-29T02:34:57;7.93;;;3.88;;
82255;SDS011;71857;34.434;-117.370;2023-07-29T02:35:28;6.40;;;3.55;;
82255;SDS011;71857;34.434;-117.370;2023-07-29T02:35:59;9.32;;;3.42;;
82255;SDS011;71857;34.434;-117.370;2023-07-29T02:36:29;6.43;;;3.72;;
82255;SDS011;71857;34.434;-117.370;2023-07-29T02:37:00;8.25;;;3.83;;
82255;SDS011;71857;34.434;-117.370;2023-07-29T02:37:31;6.65;;;3.80;;
82255;SDS011;71857;34.434;-117.370;2023-07-29T02:38:01;11.95;;;4.18;;
82255;SDS011;71857;34.434;-117.370;2023-07-29T02:38:32;7.47;;;4.13;;
82255;SDS011;71857;34.434;-117.370;2023-07-29T02:39:03;7.22;;;3.80;;
82255;SDS011;71857;34.434;-117.370;2023-07-29T02:39:34;6.68;;;3.50;;
82255;SDS011;71857;34.434;-117.370;2023-07-29T02:40:05;7.15;;;3.72;;
82255;SDS011;71857;34.434;-117.370;2023-07-29T02:40:37;9.35;;;3.97;;
82255;SDS011;71857;34.434;-117.370;2023-07-29T02:41:08;5.70;;;3.92;;
82255;SDS011;71857;34.434;-117.370;2023-07-29T02:41:39;8.45;;;3.65;;
82255;SDS011;71857;34.434;-117.370;2023-07-29T02:42:10;6.78;;;3.78;;
82255;SDS011;71857;34.434;-117.370;2023-07-29T02:42:41;7.22;;;3.80;;
82255;SDS011;71857;34.434;-117.370;2023-07-29T02:43:12;5.90;;;3.35;;
82255;SDS011;71857;34.434;-117.370;2023-07-29T02:43:43;7.55;;;3.65;;
82255;SDS011;71857;34.434;-117.370;2023-07-29T02:44:14;8.60;;;4.20;;
82255;SDS011;71857;34.434;-117.370;2023-07-29T02:44:45;6.90;;;3.50;;
82255;SDS011;71857;34.434;-117.370;2023-07-29T02:45:15;7.28;;;3.88;;
82255;SDS011;71857;34.434;-117.370;2023-07-29T02:45:46;7.25;;;4.03;;
82255;SDS011;71857;34.434;-117.370;2023-07-29T02:46:17;7.68;;;3.35;;
82255;SDS011;71857;34.434;-117.370;2023-07-29T02:46:48;8.85;;;3.38;;
82255;SDS011;71857;34.434;-117.370;2023-07-29T02:47:19;10.10;;;3.88;;
82255;SDS011;71857;34.434;-117.370;2023-07-29T02:47:49;9.35;;;3.90;;
82255;SDS011;71857;34.434;-117.370;2023-07-29T02:48:20;9.80;;;3.70;;
82255;SDS011;71857;34.434;-117.370;2023-07-29T02:48:51;6.35;;;3.42;;
82255;SDS011;71857;34.434;-117.370;2023-07-29T02:49:22;7.47;;;4.43;;
82255;SDS011;71857;34.434;-117.370;2023-07-29T02:49:53;7.55;;;4.43;;
82255;SDS011;71857;34.434;-117.370;2023-07-29T02:50:24;7.38;;;4.07;;
82255;SDS011;71857;34.434;-117.370;2023-07-29T02:50:55;8.93;;;4.20;;
82255;SDS011;71857;34.434;-117.370;2023-07-29T02:51:26;9.65;;;4.38;;
82255;SDS011;71857;34.434;-117.370;2023-07-29T02:51:56;8.57;;;3.63;;
82255;SDS011;71857;34.434;-117.370;2023-07-29T02:52:27;6.78;;;4.45;;
82255;SDS011;71857;34.434;-117.370;2023-07-29T02:52:58;8.90;;;4.05;;
82255;SDS011;71857;34.434;-117.370;2023-07-29T02:53:29;9.90;;;4.35;;
82255;SDS011;71857;34.434;-117.370;2023-07-29T02:54:00;8.30;;;3.95;;
82255;SDS011;71857;34.434;-117.370;2023-07-29T02:54:30;9.23;;;4.50;;
82255;SDS011;71857;34.434;-117.370;2023-07-29T02:55:01;7.78;;;3.67;;
82255;SDS011;71857;34.434;-117.370;2023-07-29T02:55:32;9.25;;;3.88;;
82255;SDS011;71857;34.434;-117.370;2023-07-29T02:56:03;9.30;;;3.70;;
82255;SDS011;71857;34.434;-117.370;2023-07-29T02:56:34;11.70;;;4.10;;
82255;SDS011;71857;34.434;-117.370;2023-07-29T02:57:05;11.25;;;4.03;;
82255;SDS011;71857;34.434;-117.370;2023-07-29T02:57:36;11.63;;;3.88;;
82255;SDS011;71857;34.434;-117.370;2023-07-29T02:58:06;10.88;;;4.25;;
82255;SDS011;71857;34.434;-117.370;2023-07-29T02:58:37;10.95;;;3.80;;
82255;SDS011;71857;34.434;-117.370;2023-07-29T02:59:08;13.32;;;4.40;;
82255;SDS011;71857;34.434;-117.370;2023-07-29T02:59:39;15.00;;;4.30;;
82255;SDS011;71857;34.434;-117.370;2023-07-29T03:00:10;23.70;;;4.30;;
82255;SDS011;71857;34.434;-117.370;2023-07-29T03:00:41;16.08;;;4.00;;
82255;SDS011;71857;34.434;-117.370;2023-07-29T03:01:15;16.90;;;4.30;;
82255;SDS011;71857;34.434;-117.370;2023-07-29T03:01:45;15.52;;;3.58;;
82255;SDS011;71857;34.434;-117.370;2023-07-29T03:02:16;8.25;;;4.20;;
82255;SDS011;71857;34.434;-117.370;2023-07-29T03:02:47;9.48;;;3.83;;
82255;SDS011;71857;34.434;-117.370;2023-07-29T03:03:17;6.63;;;3.70;;
82255;SDS011;71857;34.434;-117.370;2023-07-29T03:03:49;8.88;;;4.00;;
82255;SDS011;71857;34.434;-117.370;2023-07-29T03:04:20;10.40;;;4.00;;
82255;SDS011;71857;34.434;-117.370;2023-07-29T03:04:51;7.65;;;3.80;;
82255;SDS011;71857;34.434;-117.370;2023-07-29T03:05:22;8.02;;;3.85;;
82255;SDS011;71857;34.434;-117.370;2023-07-29T03:06:01;6.90;;;3.65;;
82255;SDS011;71857;34.434;-117.370;2023-07-29T03:06:33;8.95;;;3.78;;
82255;SDS011;71857;34.434;-117.370;2023-07-29T03:07:03;7.53;;;3.70;;
82255;SDS011;71857;34.434;-117.370;2023-07-29T03:07:34;11.40;;;4.38;;
82255;SDS011;71857;34.434;-117.370;2023-07-29T03:08:05;7.22;;;3.80;;
82255;SDS011;71857;34.434;-117.370;2023-07-29T03:08:36;7.60;;;4.05;;
82255;SDS011;71857;34.434;-117.370;2023-07-29T03:09:06;11.30;;;3.88;;
82255;SDS011;71857;34.434;-117.370;2023-07-29T03:09:37;9.48;;;3.80;;